Time;durP1;ratioP1;P1;durP2;ratioP2;P2;SDS_P1;SDS_P2;PMS_P1;PMS_P2;Temp;Humidity;BMP_temperature;BMP_pressure;BME280_temperature;BME280_humidity;BME280_pressure;Samples;Min_cycle;Max_cycle;Signal;HPM_P1;HPM_P2
2022/05/23 00:00:10;;;;;;;2.25;2.03;;;14.10;99.90;;;;;;5072220;28;20123;-65
2022/05/23 00:02:35;;;;;;;5.22;2.95;;;14.10;99.90;;;;;;5042959;28;20110;-66
2022/05/23 00:05:01;;;;;;;4.72;2.20;;;14.10;99.90;;;;;;5054400;28;20048;-67
2022/05/23 00:07:32;;;;;;;4.38;2.78;;;14.10;99.90;;;;;;5073595;28;20052;-66
2022/05/23 00:09:59;;;;;;;5.70;2.33;;;14.10;99.90;;;;;;5071066;28;20428;-66
2022/05/23 00:12:25;;;;;;;3.60;2.30;;;14.10;99.90;;;;;;5055236;28;20049;-66
2022/05/23 00:14:51;;;;;;;3.45;2.50;;;14.00;99.90;;;;;;5056451;28;20052;-66
2022/05/23 00:17:18;;;;;;;4.07;2.30;;;14.00;99.90;;;;;;5069292;28;20056;-67
2022/05/23 00:19:44;;;;;;;2.88;2.00;;;14.00;99.90;;;;;;5053485;28;20086;-66
2022/05/23 00:22:10;;;;;;;4.70;2.50;;;14.00;99.90;;;;;;5036182;28;20405;-66
2022/05/23 00:24:35;;;;;;;3.63;2.40;;;13.90;99.90;;;;;;5071497;28;20493;-66
2022/05/23 00:27:01;;;;;;;3.58;2.30;;;13.90;99.90;;;;;;5055803;28;20056;-66
2022/05/23 00:29:27;;;;;;;3.45;2.53;;;13.80;99.90;;;;;;5072986;28;20123;-66
2022/05/23 00:37:22;;;;;;;5.43;2.33;;;13.70;99.90;;;;;;5072079;28;20262;-66
2022/05/23 00:39:48;;;;;;;2.92;2.20;;;13.60;99.90;;;;;;5073951;28;20052;-66
2022/05/23 00:45:03;;;;;;;3.47;2.50;;;13.60;99.90;;;;;;5055803;28;20065;-67
2022/05/23 00:47:33;;;;;;;5.05;2.30;;;13.60;99.90;;;;;;5070940;28;20911;-65
2022/05/23 00:49:59;;;;;;;4.50;2.50;;;13.50;99.90;;;;;;5053514;28;20055;-65
2022/05/23 00:52:32;;;;;;;3.38;2.65;;;13.50;99.90;;;;;;5056092;28;20040;-66
2022/05/23 00:55:01;;;;;;;3.33;2.20;;;13.40;99.90;;;;;;5071831;28;20051;-66
2022/05/23 00:57:34;;;;;;;6.03;2.30;;;13.40;99.90;;;;;;5073525;28;20512;-65
2022/05/23 01:00:03;;;;;;;6.32;2.78;;;13.40;99.90;;;;;;5071418;28;20059;-66
2022/05/23 01:02:30;;;;;;;4.53;2.70;;;13.40;99.90;;;;;;5053386;28;20056;-65
2022/05/23 01:04:56;;;;;;;5.60;2.85;;;13.40;99.90;;;;;;5071418;28;20057;-66
2022/05/23 01:07:21;;;;;;;7.28;2.75;;;13.30;99.90;;;;;;5052934;28;20068;-66
2022/05/23 01:09:49;;;;;;;3.03;2.38;;;13.40;99.90;;;;;;5054002;28;20102;-66
2022/05/23 01:12:15;;;;;;;4.97;2.58;;;13.30;99.90;;;;;;5053542;28;20067;-66
2022/05/23 01:15:21;;;;;;;3.90;2.35;;;13.40;99.90;;;;;;5039227;28;20087;-65
2022/05/23 01:17:48;;;;;;;4.70;2.28;;;13.40;99.90;;;;;;5025270;28;20048;-65
2022/05/23 01:20:14;;;;;;;4.05;2.80;;;13.40;99.90;;;;;;5073323;28;20094;-65
2022/05/23 01:23:06;;;;;;;4.65;2.60;;;13.40;99.90;;;;;;5053485;28;20048;-65
2022/05/23 01:25:34;;;;;;;4.10;2.28;;;13.40;99.90;;;;;;4998104;28;20052;-65
2022/05/23 01:28:00;;;;;;;7.40;2.40;;;13.40;99.90;;;;;;5054861;28;20052;-65
2022/05/23 01:30:26;;;;;;;3.55;2.58;;;13.40;99.90;;;;;;5053779;28;20045;-66
2022/05/23 01:32:52;;;;;;;4.68;2.22;;;13.40;99.90;;;;;;5053557;28;20057;-66
2022/05/23 01:35:17;;;;;;;6.15;2.53;;;13.40;99.90;;;;;;5054391;28;20048;-65
2022/05/23 01:37:43;;;;;;;3.28;2.13;;;13.50;99.90;;;;;;5052874;28;20056;-66
2022/05/23 01:40:13;;;;;;;4.25;2.20;;;13.50;99.90;;;;;;5067447;28;20052;-67
2022/05/23 01:42:38;;;;;;;3.13;2.10;;;13.50;99.90;;;;;;5073024;28;20121;-65
2022/05/23 01:45:05;;;;;;;4.35;2.33;;;13.50;99.90;;;;;;5054542;28;20449;-65
2022/05/23 01:47:31;;;;;;;6.07;2.15;;;13.50;99.90;;;;;;5070694;28;20056;-66
2022/05/23 01:49:56;;;;;;;4.32;2.20;;;13.50;99.90;;;;;;5072643;28;20083;-66
2022/05/23 01:52:22;;;;;;;2.20;2.00;;;13.50;99.90;;;;;;5053640;28;20056;-65
2022/05/23 01:54:48;;;;;;;4.38;2.65;;;13.50;99.90;;;;;;5054849;28;20060;-65
2022/05/23 01:57:14;;;;;;;5.53;2.40;;;13.50;99.90;;;;;;5054264;28;20059;-65
2022/05/23 02:02:24;;;;;;;5.30;2.17;;;13.50;99.90;;;;;;5070369;28;20044;-66
2022/05/23 02:04:52;;;;;;;4.43;1.90;;;13.50;99.90;;;;;;5072783;28;20057;-66
2022/05/23 02:07:17;;;;;;;5.93;2.50;;;13.40;99.90;;;;;;5070004;28;20109;-66
2022/05/23 02:09:43;;;;;;;5.13;2.22;;;13.40;99.90;;;;;;5054843;28;20048;-66
2022/05/23 02:12:10;;;;;;;4.28;2.10;;;13.40;99.90;;;;;;5071702;28;20129;-66
2022/05/23 02:14:37;;;;;;;2.30;2.10;;;13.40;99.90;;;;;;5070679;28;20048;-65
2022/05/23 02:17:02;;;;;;;2.15;1.95;;;13.40;99.90;;;;;;5054179;28;20044;-66
2022/05/23 02:19:32;;;;;;;5.07;2.17;;;13.40;99.90;;;;;;5070941;28;20126;-65
2022/05/23 02:21:57;;;;;;;9.45;2.55;;;13.40;99.90;;;;;;5072528;28;20056;-65
2022/05/23 02:24:23;;;;;;;4.10;2.80;;;13.40;99.90;;;;;;5071755;28;20052;-67
2022/05/23 02:26:49;;;;;;;3.83;2.22;;;13.40;99.90;;;;;;5070368;28;20088;-66
2022/05/23 02:29:15;;;;;;;3.58;2.33;;;13.40;99.90;;;;;;5053724;28;20057;-65
2022/05/23 02:31:41;;;;;;;5.47;2.60;;;13.40;99.90;;;;;;5049457;28;20049;-67
2022/05/23 02:34:07;;;;;;;4.65;2.42;;;13.10;99.90;;;;;;5072488;28;20057;-67
2022/05/23 02:36:33;;;;;;;4.97;2.40;;;13.40;99.90;;;;;;5053308;28;20237;-66
2022/05/23 02:38:59;;;;;;;3.92;2.20;;;13.40;99.90;;;;;;5054970;28;20521;-66
2022/05/23 02:41:25;;;;;;;3.80;2.58;;;13.40;99.90;;;;;;5053144;28;20048;-65
2022/05/23 02:43:51;;;;;;;3.72;2.20;;;13.40;99.90;;;;;;5072344;28;20056;-66
2022/05/23 02:46:16;;;;;;;5.32;2.10;;;13.40;99.90;;;;;;5051732;28;20060;-66
2022/05/23 02:48:42;;;;;;;3.72;2.40;;;13.40;99.90;;;;;;5056550;28;20055;-66
2022/05/23 02:51:07;;;;;;;5.63;2.67;;;13.40;99.90;;;;;;5074380;28;20052;-65
2022/05/23 02:53:33;;;;;;;2.42;2.20;;;13.40;99.90;;;;;;5057654;28;20060;-66
2022/05/23 02:55:59;;;;;;;3.65;2.30;;;13.40;99.90;;;;;;5073090;28;20145;-66
2022/05/23 02:58:24;;;;;;;5.88;2.40;;;13.30;99.90;;;;;;5073899;28;20060;-66
2022/05/23 03:00:50;;;;;;;4.57;2.35;;;13.30;99.90;;;;;;5055073;28;20056;-66
2022/05/23 03:03:16;;;;;;;5.35;2.45;;;13.30;99.90;;;;;;5040430;28;20068;-66
2022/05/23 03:05:45;;;;;;;2.58;2.38;;;13.30;99.90;;;;;;5040948;28;20169;-65
2022/05/23 03:08:14;;;;;;;5.30;2.53;;;13.30;99.90;;;;;;5055798;28;20489;-65
2022/05/23 03:10:40;;;;;;;6.40;2.30;;;13.30;99.90;;;;;;5071655;28;20056;-66
2022/05/23 03:13:06;;;;;;;3.63;2.50;;;13.30;99.90;;;;;;5055943;28;20060;-66
2022/05/23 03:15:33;;;;;;;5.22;2.72;;;13.30;99.90;;;;;;5075468;28;20536;-66
2022/05/23 03:17:59;;;;;;;2.85;2.35;;;13.30;99.90;;;;;;5054107;28;20412;-66
2022/05/23 03:20:25;;;;;;;3.72;2.78;;;13.30;99.90;;;;;;5058226;28;20067;-65
2022/05/23 03:28:22;;;;;;;4.00;2.53;;;13.30;99.90;;;;;;5073572;28;20496;-65
2022/05/23 03:30:48;;;;;;;2.78;2.40;;;13.30;99.90;;;;;;5073192;28;20136;-66
2022/05/23 03:33:15;;;;;;;5.32;2.67;;;13.30;99.90;;;;;;5056992;28;20057;-66
2022/05/23 03:35:42;;;;;;;2.88;2.63;;;13.30;99.90;;;;;;5074350;28;20330;-65
2022/05/23 03:38:08;;;;;;;4.45;2.60;;;13.30;99.90;;;;;;5057780;28;20068;-66
2022/05/23 03:40:36;;;;;;;3.00;2.80;;;13.30;99.90;;;;;;5074190;28;20045;-65
2022/05/23 03:43:01;;;;;;;5.65;2.70;;;13.30;99.90;;;;;;5039449;28;20056;-65
2022/05/23 03:45:27;;;;;;;5.05;2.75;;;13.30;99.90;;;;;;5053421;28;20044;-65
2022/05/23 03:47:54;;;;;;;3.30;2.70;;;13.30;99.90;;;;;;5054718;28;20092;-66
2022/05/23 03:50:23;;;;;;;9.23;2.80;;;13.30;99.90;;;;;;5071581;28;20053;-66
2022/05/23 03:52:48;;;;;;;8.18;3.17;;;13.30;99.90;;;;;;5074245;28;20117;-65
2022/05/23 03:55:15;;;;;;;3.53;2.33;;;13.30;99.90;;;;;;5075362;28;20532;-65
2022/05/23 03:57:40;;;;;;;4.18;2.63;;;13.30;99.90;;;;;;5054324;28;20059;-66
2022/05/23 04:00:08;;;;;;;3.53;2.80;;;13.30;99.90;;;;;;5054301;28;20056;-66
2022/05/23 04:02:34;;;;;;;5.90;3.03;;;13.30;99.90;;;;;;5055317;28;20538;-65
2022/05/23 04:05:00;;;;;;;3.67;2.63;;;13.30;99.90;;;;;;5075242;28;20057;-65
2022/05/23 04:07:26;;;;;;;5.50;3.08;;;13.30;99.90;;;;;;5055991;28;20127;-66
2022/05/23 04:09:52;;;;;;;5.22;2.90;;;13.30;99.90;;;;;;5074544;28;20161;-65
2022/05/23 04:12:18;;;;;;;4.47;2.85;;;13.30;99.90;;;;;;5054349;28;20400;-66
2022/05/23 04:14:44;;;;;;;3.15;2.85;;;13.40;99.90;;;;;;5056266;28;20052;-66
2022/05/23 04:17:10;;;;;;;4.85;2.70;;;13.40;99.90;;;;;;5073547;28;20088;-66
2022/05/23 04:19:36;;;;;;;3.67;2.80;;;13.60;99.90;;;;;;5073177;28;20052;-67
2022/05/23 04:22:01;;;;;;;5.20;3.10;;;13.40;99.90;;;;;;5074207;28;20409;-65
2022/05/23 04:24:28;;;;;;;6.28;3.35;;;13.40;99.90;;;;;;5071567;28;20131;-65
2022/05/23 04:26:56;;;;;;;6.95;3.53;;;13.30;99.90;;;;;;5054599;28;20057;-66
2022/05/23 04:29:22;;;;;;;4.07;3.13;;;13.30;99.90;;;;;;5056298;28;20488;-65
2022/05/23 04:31:48;;;;;;;6.78;3.17;;;13.30;99.90;;;;;;5071439;28;20059;-65
2022/05/23 04:36:58;;;;;;;5.22;3.20;;;13.40;99.90;;;;;;5054187;28;20131;-65
2022/05/23 04:39:23;;;;;;;6.47;3.10;;;13.40;99.90;;;;;;5073793;28;20072;-65
2022/05/23 04:41:49;;;;;;;3.20;2.90;;;13.40;99.90;;;;;;5054517;28;20056;-67
2022/05/23 04:44:14;;;;;;;4.60;3.42;;;13.50;99.90;;;;;;5056382;28;20135;-65
2022/05/23 04:49:41;;;;;;;4.97;3.40;;;13.50;99.90;;;;;;5054707;28;20183;-66
2022/05/23 04:49:41;;;;;;;5.80;3.65;;;13.60;99.90;;;;;;5072121;28;20048;-66
2022/05/23 04:52:14;;;;;;;5.30;3.20;;;13.60;99.90;;;;;;5052263;28;20442;-66
2022/05/23 04:54:41;;;;;;;6.40;3.85;;;13.70;99.90;;;;;;5056027;28;20119;-66
2022/05/23 04:57:08;;;;;;;6.60;3.47;;;13.80;99.90;;;;;;5052543;28;20382;-66
2022/05/23 04:59:35;;;;;;;4.70;3.08;;;13.90;99.90;;;;;;5053770;28;20049;-66
2022/05/23 05:02:01;;;;;;;6.93;3.88;;;14.00;99.90;;;;;;5071475;28;20053;-65
2022/05/23 05:04:27;;;;;;;5.32;3.35;;;14.00;99.90;;;;;;5073146;28;20493;-66
2022/05/23 05:06:53;;;;;;;5.63;3.63;;;14.10;99.90;;;;;;5075145;28;20070;-66
2022/05/23 05:09:18;;;;;;;4.18;3.83;;;14.20;99.90;;;;;;5055542;28;20057;-65
2022/05/23 05:11:44;;;;;;;4.82;3.25;;;14.20;99.90;;;;;;5054361;28;20052;-67
2022/05/23 05:14:10;;;;;;;4.35;3.70;;;14.30;99.90;;;;;;5073419;28;20516;-66
2022/05/23 05:16:36;;;;;;;4.07;3.55;;;14.30;99.90;;;;;;5053566;28;20056;-67
2022/05/23 05:19:01;;;;;;;5.07;3.70;;;14.40;99.90;;;;;;5054528;28;20056;-65
2022/05/23 05:21:27;;;;;;;5.15;3.30;;;14.40;99.90;;;;;;5053724;28;20055;-66
2022/05/23 05:23:54;;;;;;;6.15;3.90;;;14.40;99.90;;;;;;5067597;28;20040;-66
2022/05/23 05:26:19;;;;;;;4.53;3.65;;;14.50;99.90;;;;;;5054305;28;20044;-65
2022/05/23 05:28:45;;;;;;;5.07;3.80;;;14.60;99.90;;;;;;5053343;28;20573;-65
2022/05/23 05:31:19;;;;;;;6.95;4.03;;;14.60;99.90;;;;;;5072765;28;20068;-66
2022/05/23 05:33:52;;;;;;;6.95;3.70;;;14.60;99.90;;;;;;5072643;28;20114;-65
2022/05/23 05:36:21;;;;;;;4.35;3.95;;;14.60;99.90;;;;;;5072919;28;20057;-66
2022/05/23 05:38:52;;;;;;;8.10;4.22;;;14.70;99.90;;;;;;5072901;28;20049;-66
2022/05/23 05:41:41;;;;;;;4.65;3.83;;;14.80;99.90;;;;;;5053131;28;20049;-66
2022/05/23 05:44:11;;;;;;;6.30;3.90;;;14.80;99.90;;;;;;5051360;28;20056;-66
2022/05/23 05:46:41;;;;;;;5.97;3.72;;;15.20;99.90;;;;;;5052759;28;20068;-66
2022/05/23 05:49:14;;;;;;;7.82;4.07;;;16.00;99.90;;;;;;5068745;28;20056;-66
2022/05/23 05:51:43;;;;;;;6.00;3.92;;;16.80;99.90;;;;;;5054288;28;20056;-65
2022/05/23 05:54:12;;;;;;;4.90;3.97;;;17.20;99.90;;;;;;5054583;28;20501;-66
2022/05/23 05:56:39;;;;;;;5.40;4.13;;;17.40;99.90;;;;;;5072672;28;20052;-67
2022/05/23 05:59:06;;;;;;;8.00;4.28;;;17.40;99.90;;;;;;5072492;28;20074;-65
2022/05/23 06:01:31;;;;;;;9.02;4.35;;;17.50;99.90;;;;;;5052691;28;20493;-63
2022/05/23 06:03:57;;;;;;;4.82;3.95;;;17.60;99.90;;;;;;5069886;28;20036;-63
2022/05/23 06:11:51;;;;;;;7.85;4.40;;;18.50;99.90;;;;;;5054346;28;20045;-63
2022/05/23 06:14:16;;;;;;;6.40;4.30;;;18.50;99.90;;;;;;5072612;28;20109;-63
2022/05/23 06:16:42;;;;;;;7.57;4.05;;;18.50;99.90;;;;;;5053776;28;20099;-64
2022/05/23 06:19:07;;;;;;;7.65;4.35;;;19.00;99.90;;;;;;5053520;28;20435;-64
2022/05/23 06:21:33;;;;;;;5.53;4.32;;;19.50;99.90;;;;;;5070586;28;20060;-64
2022/05/23 06:23:59;;;;;;;4.72;4.07;;;19.90;99.90;;;;;;5076448;28;20057;-63
2022/05/23 06:26:29;;;;;;;7.15;4.57;;;20.20;99.90;;;;;;5073784;28;20044;-63
2022/05/23 06:28:55;;;;;;;4.57;4.18;;;20.10;99.90;;;;;;5072948;28;20056;-66
2022/05/23 06:31:21;;;;;;;7.80;4.55;;;19.70;99.90;;;;;;5075844;28;20044;-66
2022/05/23 06:33:47;;;;;;;5.25;4.18;;;19.20;99.90;;;;;;5040567;28;20044;-64
2022/05/23 06:36:14;;;;;;;6.28;4.35;;;18.90;99.90;;;;;;5074852;28;20049;-65
2022/05/23 06:38:41;;;;;;;6.28;4.20;;;18.80;99.90;;;;;;5058183;28;20115;-64
2022/05/23 06:41:09;;;;;;;7.15;4.78;;;18.70;99.90;;;;;;5075818;28;20230;-64
2022/05/23 06:43:35;;;;;;;7.10;4.63;;;18.50;99.90;;;;;;5057280;28;20131;-64
2022/05/23 06:46:02;;;;;;;4.93;4.07;;;18.40;99.90;;;;;;5074745;28;20472;-64
2022/05/23 06:48:28;;;;;;;6.82;4.80;;;18.40;99.90;;;;;;5057240;28;20051;-65
2022/05/23 06:50:54;;;;;;;5.05;4.40;;;18.40;99.90;;;;;;5057884;28;20396;-65
2022/05/23 06:53:22;;;;;;;7.38;4.30;;;18.60;99.90;;;;;;5057630;28;20056;-64
2022/05/23 06:55:48;;;;;;;6.45;5.00;;;18.70;99.90;;;;;;5057414;28;20091;-64
2022/05/23 06:58:14;;;;;;;11.38;4.63;;;18.80;99.90;;;;;;5057902;28;20064;-64
2022/05/23 07:00:40;;;;;;;8.63;4.80;;;18.80;99.90;;;;;;5057068;28;20045;-64
2022/05/23 07:03:14;;;;;;;7.57;4.70;;;18.80;99.90;;;;;;5075050;28;20056;-65
2022/05/23 07:13:53;;;;;;;5.10;4.43;;;19.10;99.90;;;;;;5057053;28;20119;-65
2022/05/23 07:16:18;;;;;;;6.78;4.72;;;19.20;99.90;;;;;;5056600;28;20127;-65
2022/05/23 07:18:45;;;;;;;5.85;4.45;;;19.40;99.90;;;;;;5075278;28;20059;-65
2022/05/23 07:21:10;;;;;;;7.45;4.60;;;19.50;99.90;;;;;;5057320;28;20087;-65
2022/05/23 07:23:37;;;;;;;5.70;4.65;;;19.70;99.90;;;;;;5057378;28;20087;-65
2022/05/23 07:26:05;;;;;;;6.18;4.53;;;19.80;99.90;;;;;;5057487;28;20430;-65
2022/05/23 07:28:31;;;;;;;4.57;3.78;;;20.00;99.90;;;;;;5074832;28;20059;-65
2022/05/23 07:30:57;;;;;;;5.28;4.50;;;20.10;99.90;;;;;;5056099;28;20683;-65
2022/05/23 07:33:23;;;;;;;5.28;4.68;;;20.40;99.90;;;;;;5074811;28;20075;-65
2022/05/23 07:35:57;;;;;;;7.93;4.78;;;20.50;99.90;;;;;;5056778;28;20049;-65
2022/05/23 07:38:23;;;;;;;6.53;4.60;;;20.50;99.90;;;;;;5052553;28;20056;-66
2022/05/23 07:40:52;;;;;;;7.90;4.55;;;20.50;99.90;;;;;;5062028;28;20045;-65
2022/05/23 07:43:19;;;;;;;6.80;4.40;;;20.60;99.90;;;;;;5054014;28;20067;-66
2022/05/23 07:45:45;;;;;;;6.03;4.45;;;20.60;99.90;;;;;;5054699;28;20519;-66
2022/05/23 07:48:11;;;;;;;7.63;4.90;;;20.60;99.90;;;;;;5073810;28;20052;-65
2022/05/23 07:50:37;;;;;;;8.60;4.43;;;20.80;99.90;;;;;;5072530;28;20040;-67
2022/05/23 08:01:15;;;;;;;5.43;4.68;;;21.30;99.90;;;;;;5070283;28;20056;-65
2022/05/23 08:03:46;;;;;;;5.68;4.50;;;21.30;99.90;;;;;;5069803;28;20044;-65
2022/05/23 08:06:12;;;;;;;5.32;3.92;;;21.50;99.90;;;;;;5073476;28;20099;-65
2022/05/23 08:08:37;;;;;;;4.50;4.00;;;21.70;99.90;;;;;;5054817;28;20147;-65
2022/05/23 08:11:08;;;;;;;8.38;4.30;;;21.80;99.90;;;;;;5094345;28;20120;-66
2022/05/23 08:13:34;;;;;;;6.30;4.05;;;22.10;99.90;;;;;;5047376;28;20099;-67
2022/05/23 08:16:00;;;;;;;5.25;3.80;;;22.00;99.90;;;;;;5036218;28;20063;-65
2022/05/23 08:18:26;;;;;;;6.07;3.60;;;22.00;99.90;;;;;;5036549;28;20057;-65
2022/05/23 08:20:51;;;;;;;6.13;4.07;;;22.20;99.90;;;;;;5049194;28;20470;-66
2022/05/23 08:23:17;;;;;;;6.90;4.10;;;22.20;99.90;;;;;;5066420;28;20044;-66
2022/05/23 08:25:43;;;;;;;6.13;4.55;;;22.10;99.90;;;;;;5052558;28;20149;-65
2022/05/23 08:28:08;;;;;;;9.38;4.50;;;22.00;99.90;;;;;;5054102;28;20114;-65
2022/05/23 08:30:34;;;;;;;6.97;4.75;;;22.00;99.90;;;;;;5056132;28;20119;-66
2022/05/23 08:32:59;;;;;;;5.68;4.25;;;22.30;99.90;;;;;;5055349;28;20088;-65
2022/05/23 08:35:26;;;;;;;6.25;4.53;;;22.40;99.90;;;;;;5073923;28;20362;-65
2022/05/23 08:37:52;;;;;;;6.45;4.38;;;22.40;99.90;;;;;;5054931;28;20075;-65
2022/05/23 08:40:17;;;;;;;6.72;4.18;;;22.40;99.90;;;;;;5055340;28;20093;-67
2022/05/23 08:42:56;;;;;;;6.75;3.83;;;22.40;99.90;;;;;;5073654;28;20389;-65
2022/05/23 08:45:34;;;;;;;5.80;4.60;;;22.40;99.90;;;;;;5072229;28;20063;-65
2022/05/23 08:48:23;;;;;;;5.82;3.85;;;22.30;99.90;;;;;;5070757;28;20044;-67
2022/05/23 08:51:01;;;;;;;6.55;4.20;;;22.50;99.90;;;;;;5052519;28;20098;-65
2022/05/23 08:53:56;;;;;;;8.32;3.50;;;22.50;99.90;;;;;;5073700;28;20092;-65
2022/05/23 08:56:37;;;;;;;5.15;3.50;;;22.70;99.90;;;;;;5048564;28;20119;-65
2022/05/23 08:59:13;;;;;;;5.10;3.30;;;22.90;99.80;;;;;;5073268;28;20052;-65
2022/05/23 09:01:56;;;;;;;4.03;3.47;;;23.00;99.90;;;;;;5055512;28;20544;-67
2022/05/23 09:04:31;;;;;;;7.13;3.42;;;23.20;99.00;;;;;;5053974;28;20055;-64
2022/05/23 09:06:59;;;;;;;6.05;3.00;;;23.30;99.90;;;;;;5055400;28;20103;-65
2022/05/23 09:09:27;;;;;;;5.53;2.92;;;23.20;99.90;;;;;;5073458;28;20048;-65
2022/05/23 09:11:59;;;;;;;6.20;2.88;;;23.30;99.90;;;;;;5073175;28;20056;-64
2022/05/23 09:14:24;;;;;;;5.80;3.42;;;23.30;98.80;;;;;;5055417;28;20049;-67
2022/05/23 09:16:53;;;;;;;7.32;3.78;;;23.30;99.90;;;;;;5071252;28;20056;-66
2022/05/23 09:19:25;;;;;;;4.18;3.60;;;23.40;99.90;;;;;;5070811;28;20487;-66
2022/05/23 09:24:44;;;;;;;5.93;3.35;;;23.50;97.70;;;;;;5053693;28;20082;-65
2022/05/23 09:27:37;;;;;;;6.38;3.47;;;23.60;97.00;;;;;;5054713;28;20044;-65
2022/05/23 09:30:08;;;;;;;5.35;3.10;;;23.60;93.50;;;;;;5073011;28;20056;-65
2022/05/23 09:32:53;;;;;;;6.07;3.60;;;23.80;91.50;;;;;;5052867;28;20522;-64
2022/05/23 09:35:22;;;;;;;4.88;2.90;;;23.80;77.30;;;;;;5055080;28;20377;-64
2022/05/23 09:38:18;;;;;;;6.45;2.70;;;23.70;91.20;;;;;;5072862;28;20194;-66
2022/05/23 09:40:44;;;;;;;3.90;3.05;;;23.60;82.70;;;;;;5046731;28;20059;-65
2022/05/23 09:49:09;;;;;;;4.65;2.85;;;23.50;84.00;;;;;;5071939;28;20040;-65
2022/05/23 09:52:01;;;;;;;6.97;3.47;;;23.50;90.20;;;;;;5067150;28;20060;-66
2022/05/23 09:54:32;;;;;;;4.13;3.03;;;23.40;83.30;;;;;;5046380;28;20045;-66
2022/05/23 09:57:02;;;;;;;4.70;3.13;;;23.50;92.00;;;;;;5063644;28;20090;-66
2022/05/23 09:59:34;;;;;;;5.80;3.47;;;23.60;92.70;;;;;;5056270;28;20044;-65
2022/05/23 10:02:29;;;;;;;5.82;3.25;;;23.60;92.60;;;;;;5070491;28;20056;-65
2022/05/23 10:04:55;;;;;;;4.78;3.08;;;23.60;81.30;;;;;;5054867;28;20131;-65
2022/05/23 10:07:34;;;;;;;4.45;3.00;;;23.70;89.30;;;;;;5053270;28;20284;-66
2022/05/23 10:10:03;;;;;;;3.80;2.65;;;23.70;84.10;;;;;;5050620;28;20053;-66
2022/05/23 10:12:32;;;;;;;4.13;2.60;;;23.70;85.00;;;;;;5053050;28;20153;-66
2022/05/23 10:15:28;;;;;;;5.45;2.80;;;23.70;88.40;;;;;;5055100;28;20064;-66
2022/05/23 10:18:06;;;;;;;5.07;2.78;;;23.80;84.30;;;;;;5068657;28;20534;-66
2022/05/23 10:20:38;;;;;;;2.92;2.50;;;24.20;85.20;;;;;;5051774;28;20065;-66
2022/05/23 10:23:15;;;;;;;4.05;3.20;;;24.40;81.60;;;;;;5072227;28;20072;-65
2022/05/23 10:25:57;;;;;;;5.80;3.45;;;24.70;77.10;;;;;;5069972;28;20080;-66
2022/05/23 10:28:44;;;;;;;4.20;2.55;;;24.90;70.50;;;;;;5051194;28;20084;-66
2022/05/23 10:31:23;;;;;;;3.20;2.30;;;25.20;69.90;;;;;;5068619;28;20493;-66
2022/05/23 10:33:58;;;;;;;4.80;2.35;;;25.40;65.10;;;;;;5070460;28;20413;-65
2022/05/23 10:36:26;;;;;;;4.15;2.45;;;25.40;65.60;;;;;;5070272;28;20531;-65
2022/05/23 10:42:13;;;;;;;5.05;2.30;;;25.10;62.20;;;;;;5068936;28;20052;-67
2022/05/23 10:45:04;;;;;;;3.33;1.98;;;25.20;62.00;;;;;;5070270;28;20532;-67
2022/05/23 10:48:06;;;;;;;4.78;2.38;;;25.30;62.70;;;;;;5051835;28;20095;-67
2022/05/23 10:50:56;;;;;;;6.93;2.53;;;25.30;61.70;;;;;;5072202;28;20116;-67
2022/05/23 10:53:37;;;;;;;4.78;2.60;;;25.40;61.90;;;;;;5052938;28;20060;-67
2022/05/23 10:56:22;;;;;;;2.70;1.88;;;25.10;58.10;;;;;;5053444;28;20084;-66
2022/05/23 10:58:59;;;;;;;2.92;1.90;;;24.90;58.60;;;;;;5078523;28;20055;-65
2022/05/23 11:01:39;;;;;;;3.38;1.85;;;24.80;59.90;;;;;;5061959;28;20053;-67
2022/05/23 11:04:33;;;;;;;2.17;1.98;;;24.80;59.10;;;;;;5053292;28;20056;-62
2022/05/23 11:06:58;;;;;;;2.30;2.03;;;24.80;58.80;;;;;;5071835;28;20061;-65
2022/05/23 11:09:46;;;;;;;3.25;1.52;;;24.80;61.00;;;;;;5054594;28;20110;-66
2022/05/23 11:12:35;;;;;;;5.03;1.77;;;24.80;59.80;;;;;;5057253;28;20060;-64
2022/05/23 11:15:12;;;;;;;3.67;2.00;;;24.90;59.80;;;;;;5075541;28;20099;-64
2022/05/23 11:17:51;;;;;;;4.13;1.80;;;25.10;60.40;;;;;;5074940;28;20048;-64
2022/05/23 11:20:26;;;;;;;4.10;2.08;;;25.20;60.10;;;;;;5054758;28;20056;-64
2022/05/23 11:23:18;;;;;;;5.68;2.22;;;25.30;60.40;;;;;;5053030;28;20454;-65
2022/05/23 11:25:49;;;;;;;2.42;1.77;;;25.40;60.30;;;;;;5073608;28;20134;-65
2022/05/23 11:34:37;;;;;;;4.15;2.10;;;25.20;59.80;;;;;;5072770;28;20049;-65
2022/05/23 11:37:42;;;;;;;3.90;1.98;;;25.20;59.50;;;;;;5073850;28;20048;-65
2022/05/23 11:40:06;;;;;;;2.65;2.20;;;25.10;60.00;;;;;;5053873;28;20602;-64
2022/05/23 11:42:49;;;;;;;3.97;1.83;;;25.20;61.00;;;;;;5055170;28;20072;-66
2022/05/23 11:46:00;;;;;;;2.30;1.75;;;25.40;62.10;;;;;;5055113;28;20061;-66
2022/05/23 11:51:12;;;;;;;4.15;2.47;;;25.80;60.50;;;;;;5085276;28;20546;-65
2022/05/23 11:53:59;;;;;;;4.40;2.40;;;25.90;59.70;;;;;;5054138;28;20060;-65
2022/05/23 11:56:43;;;;;;;3.85;2.50;;;25.90;59.70;;;;;;5067657;28;20459;-66
2022/05/23 11:59:23;;;;;;;3.20;2.65;;;25.90;60.30;;;;;;5056679;28;20052;-65
2022/05/23 12:02:11;;;;;;;4.63;2.95;;;26.10;60.30;;;;;;5055750;28;20059;-65
2022/05/23 12:04:48;;;;;;;4.43;2.72;;;26.10;59.70;;;;;;5055443;28;20182;-64
2022/05/23 12:07:43;;;;;;;3.10;2.55;;;26.10;60.30;;;;;;5056402;28;20390;-65
2022/05/23 12:10:21;;;;;;;3.30;2.50;;;26.10;60.20;;;;;;5056403;28;20454;-65
2022/05/23 12:12:48;;;;;;;4.00;2.35;;;25.90;60.60;;;;;;5055655;28;20132;-64
2022/05/23 12:15:41;;;;;;;4.13;2.45;;;25.80;61.60;;;;;;5056211;28;20049;-64
2022/05/23 12:18:09;;;;;;;4.80;2.70;;;25.70;60.30;;;;;;5073901;28;20048;-64
2022/05/23 12:20:45;;;;;;;3.08;2.47;;;25.40;61.20;;;;;;5055056;28;20048;-64
2022/05/23 12:23:28;;;;;;;4.30;2.42;;;25.40;61.30;;;;;;5053817;28;20545;-64
2022/05/23 12:26:05;;;;;;;6.88;2.60;;;25.30;61.80;;;;;;5035900;28;20045;-64
2022/05/23 12:29:02;;;;;;;3.85;2.30;;;25.20;63.60;;;;;;5049999;28;20045;-66
2022/05/23 12:31:30;;;;;;;4.65;2.22;;;25.30;63.90;;;;;;5069895;28;20405;-65
2022/05/23 12:34:02;;;;;;;2.50;2.17;;;25.30;63.70;;;;;;5055200;28;20118;-64
2022/05/23 12:36:29;;;;;;;;;;;25.40;66.30;;;;;;5052945;28;20110;-66
2022/05/23 12:39:19;;;;;;;3.60;2.20;;;25.50;64.70;;;;;;5055356;28;19924;-64
2022/05/23 12:42:15;;;;;;;3.35;2.20;;;25.40;63.00;;;;;;5053685;28;20053;-64
2022/05/23 12:44:52;;;;;;;4.10;2.55;;;25.50;63.20;;;;;;5053637;28;20068;-65
2022/05/23 12:48:01;;;;;;;3.13;2.25;;;25.50;64.10;;;;;;5054091;28;20075;-64
2022/05/23 12:50:42;;;;;;;4.90;2.60;;;25.70;64.80;;;;;;5053296;28;20534;-64
2022/05/23 12:53:33;;;;;;;3.80;2.63;;;25.60;63.90;;;;;;5053282;28;20060;-65
2022/05/23 12:56:26;;;;;;;3.85;2.30;;;25.60;62.80;;;;;;5053343;28;20558;-66
2022/05/23 12:59:20;;;;;;;3.47;2.25;;;25.40;63.60;;;;;;5051395;28;20068;-65
2022/05/23 13:01:48;;;;;;;3.70;2.72;;;25.40;64.40;;;;;;5072695;28;20056;-65
2022/05/23 13:04:21;;;;;;;4.70;2.78;;;25.30;65.20;;;;;;5073325;28;20045;-64
2022/05/23 13:07:01;;;;;;;3.17;2.88;;;25.20;67.10;;;;;;5073401;28;20064;-65
2022/05/23 13:09:44;;;;;;;3.13;2.60;;;25.10;70.60;;;;;;5055123;28;20040;-63
2022/05/23 13:12:19;;;;;;;3.70;2.25;;;25.10;73.50;;;;;;5071571;28;20135;-65
2022/05/23 13:14:57;;;;;;;4.45;2.75;;;24.90;75.20;;;;;;5038049;28;20044;-65
2022/05/23 13:17:43;;;;;;;3.28;2.58;;;25.00;79.60;;;;;;5072509;28;20049;-64
2022/05/23 13:23:13;;;;;;;4.70;2.90;;;25.10;77.90;;;;;;5053574;28;20079;-65
2022/05/23 13:25:39;;;;;;;4.70;2.95;;;25.00;79.60;;;;;;5070929;28;20068;-65
2022/05/23 13:28:09;;;;;;;6.32;2.83;;;25.00;82.00;;;;;;5054524;28;20456;-64
2022/05/23 13:30:43;;;;;;;3.70;3.08;;;25.10;84.10;;;;;;5072359;28;20048;-65
2022/05/23 13:33:16;;;;;;;3.90;3.08;;;25.10;83.80;;;;;;5054210;28;20064;-65
2022/05/23 13:35:44;;;;;;;4.72;2.92;;;25.10;82.60;;;;;;5073077;28;20059;-65
2022/05/23 13:38:17;;;;;;;4.57;2.92;;;25.10;90.00;;;;;;5072741;28;20101;-65
2022/05/23 13:40:46;;;;;;;4.63;3.05;;;25.00;86.30;;;;;;5053979;28;20057;-66
2022/05/23 13:43:16;;;;;;;4.80;3.33;;;24.90;83.50;;;;;;5072313;28;20056;-65
2022/05/23 13:45:43;;;;;;;6.28;3.20;;;24.80;90.00;;;;;;5072211;28;20488;-65
2022/05/23 13:48:16;;;;;;;3.42;3.10;;;24.70;91.00;;;;;;5071956;28;20044;-64
2022/05/23 13:50:49;;;;;;;4.88;3.05;;;24.60;88.90;;;;;;5071146;28;20057;-64
2022/05/23 13:53:22;;;;;;;4.68;3.20;;;24.60;88.70;;;;;;5072762;28;20052;-64
2022/05/23 13:55:50;;;;;;;4.97;3.20;;;24.60;89.70;;;;;;5072657;28;20056;-66
2022/05/23 13:58:25;;;;;;;7.00;3.85;;;24.60;92.90;;;;;;5069637;28;20144;-63
2022/05/23 14:00:58;;;;;;;4.07;3.13;;;24.60;88.10;;;;;;5051643;28;20047;-66
2022/05/23 14:03:35;;;;;;;6.43;3.20;;;24.50;91.00;;;;;;5071990;28;20071;-65
2022/05/23 14:06:06;;;;;;;4.35;3.95;;;24.60;92.10;;;;;;5072201;28;20149;-64
2022/05/23 14:08:36;;;;;;;7.45;3.78;;;25.00;89.40;;;;;;5053704;28;20071;-64
2022/05/23 14:11:31;;;;;;;7.50;3.33;;;24.50;90.40;;;;;;5072829;28;20061;-65
2022/05/23 14:14:14;;;;;;;5.78;3.70;;;24.60;94.80;;;;;;5070853;28;20508;-65